Weather reports worldwide

Advertisment
Gogerddan, United Kingdom (99150): temperature & dewpoint: 17.01.2019 02:00:00 - 23.01.2019 02:00:00 (GMT)Gogerddan, United Kingdom (99150): temperature -20cm & temperature -100cm: 17.01.2019 02:00:00 - 23.01.2019 02:00:00 (GMT)Gogerddan, United Kingdom (99150): precipitation: 17.01.2019 02:00:00 - 23.01.2019 02:00:00 (GMT)
Date & Time tt [°C] td [°C] tt -20cm [°C] tt -100cm [°C] rr [mm]
23.01.2019 02:00:00 - - - - -
23.01.2019 01:00:00 3,0 -0,3 - - 0,0
23.01.2019 00:00:00 1,9 -0,1 - - 0,2
22.01.2019 23:00:00 4,9 0,2 - - 0,0
22.01.2019 22:00:00 4,9 1,0 - - 0,0
22.01.2019 21:00:00 4,7 0,8 - - 0,0
22.01.2019 20:00:00 4,6 0,6 - - 0,0
22.01.2019 19:00:00 3,9 0,2 - - 0,0
22.01.2019 18:00:00 4,3 0,7 - - 0,0
22.01.2019 17:00:00 4,3 0,4 - - 0,0
22.01.2019 16:00:00 4,4 1,2 - - 0,2
22.01.2019 15:00:00 4,9 0,8 - - 0,0
22.01.2019 14:00:00 5,2 1,5 - - 0,0
22.01.2019 13:00:00 5,1 1,5 - - 0,0
22.01.2019 12:00:00 2,9 2,2 - - 1,8
22.01.2019 11:00:00 2,8 1,6 - - 2,0
22.01.2019 10:00:00 4,8 0,8 - - 0,0
22.01.2019 09:00:00 4,8 -0,3 6,2 7,9 0,0
22.01.2019 08:00:00 4,7 0,7 - - 0,0
22.01.2019 07:00:00 4,8 -0,4 - - 0,0
22.01.2019 06:00:00 4,7 0,8 - - 0,0
22.01.2019 05:00:00 4,7 0,6 - - 0,0
22.01.2019 04:00:00 5,0 1,7 - - 0,0
22.01.2019 03:00:00 4,1 1,0 - - 0,2
22.01.2019 02:00:00 4,8 -0,1 - - 0,0
22.01.2019 01:00:00 4,4 0,8 - - 0,0
22.01.2019 00:00:00 4,1 0,4 - - 0,0
21.01.2019 23:00:00 4,0 2,9 - - 0,2
21.01.2019 22:00:00 3,9 2,6 - - 4,4
21.01.2019 21:00:00 6,5 4,9 - - 1,4
21.01.2019 20:00:00 6,6 3,9 - - 0,2
21.01.2019 19:00:00 6,5 3,5 - - 0,0
21.01.2019 18:00:00 6,1 3,0 - - 0,0
21.01.2019 17:00:00 6,6 2,7 - - 0,0
21.01.2019 16:00:00 6,7 3,5 - - 0,0
21.01.2019 15:00:00 6,6 3,5 - - 0,0
21.01.2019 14:00:00 6,2 3,4 - - 0,0
21.01.2019 13:00:00 5,8 3,2 - - 0,0
21.01.2019 12:00:00 5,7 3,7 - - 0,0
21.01.2019 11:00:00 2,8 2,5 - - 0,2
21.01.2019 10:00:00 1,0 0,7 - - 0,0
21.01.2019 09:00:00 -0,2 -0,4 6,7 8,0 0,0
21.01.2019 08:00:00 -0,7 -1,0 - - 0,0
21.01.2019 07:00:00 -0,3 -0,5 - - 0,0
21.01.2019 06:00:00 0,1 -0,1 - - 0,0
21.01.2019 05:00:00 0,0 -0,4 - - 0,0
21.01.2019 04:00:00 0,4 -0,1 - - 0,0
21.01.2019 03:00:00 0,9 0,5 - - 0,0
21.01.2019 02:00:00 1,1 0,6 - - 0,0
21.01.2019 01:00:00 2,4 1,8 - - 0,0
21.01.2019 00:00:00 4,1 3,3 - - 0,0
20.01.2019 23:00:00 5,1 4,0 - - 0,0
20.01.2019 22:00:00 5,6 4,5 - - 0,0
20.01.2019 21:00:00 5,7 4,8 - - 0,0
20.01.2019 20:00:00 5,9 4,7 - - 0,0
20.01.2019 19:00:00 5,4 4,0 - - 0,0
20.01.2019 18:00:00 5,4 3,8 - - 0,0
20.01.2019 17:00:00 5,9 4,2 - - 0,0
20.01.2019 16:00:00 7,4 3,5 - - 0,0
20.01.2019 15:00:00 7,7 3,2 - - 0,0
20.01.2019 14:00:00 8,3 3,9 - - 0,0
20.01.2019 13:00:00 8,1 4,3 - - 0,0
20.01.2019 12:00:00 7,1 6,2 - - 0,0
20.01.2019 11:00:00 6,0 5,8 - - 0,0
20.01.2019 10:00:00 5,4 5,2 - - 0,0
20.01.2019 09:00:00 4,6 4,4 6,7 8,0 0,0
20.01.2019 08:00:00 4,6 4,3 - - 0,2
20.01.2019 07:00:00 5,0 4,7 - - 0,0
20.01.2019 06:00:00 5,0 4,7 - - 0,0
20.01.2019 05:00:00 4,8 4,5 - - 0,0
20.01.2019 04:00:00 5,3 5,0 - - 0,0
20.01.2019 03:00:00 5,5 5,2 - - 0,0
20.01.2019 02:00:00 5,4 5,1 - - 0,0
20.01.2019 01:00:00 5,4 5,1 - - 0,0
20.01.2019 00:00:00 5,4 5,0 - - 0,0
19.01.2019 23:00:00 5,5 5,0 - - 0,0
19.01.2019 22:00:00 5,8 5,3 - - 0,2
19.01.2019 21:00:00 5,9 5,4 - - 0,0
19.01.2019 20:00:00 6,0 5,3 - - 0,0
19.01.2019 19:00:00 6,2 5,6 - - 0,4
19.01.2019 18:00:00 6,3 5,6 - - 0,2
19.01.2019 17:00:00 6,8 5,7 - - 0,6
19.01.2019 16:00:00 7,4 6,5 - - 0,2
19.01.2019 15:00:00 7,4 6,6 - - 2,0
19.01.2019 14:00:00 8,1 6,0 - - 0,0
19.01.2019 13:00:00 8,4 5,5 - - 0,0
19.01.2019 12:00:00 7,6 5,6 - - 0,0
19.01.2019 11:00:00 6,9 5,1 - - 0,0
19.01.2019 10:00:00 6,6 4,7 - - 0,2
19.01.2019 09:00:00 6,4 4,2 6,5 8,0 0,0
19.01.2019 08:00:00 6,2 4,2 - - 0,0
19.01.2019 07:00:00 6,0 4,4 - - 0,2
19.01.2019 06:00:00 5,9 4,5 - - 1,2
19.01.2019 05:00:00 6,2 4,4 - - 0,6
19.01.2019 04:00:00 5,8 4,2 - - 1,0
19.01.2019 03:00:00 5,8 4,3 - - 0,8
19.01.2019 02:00:00 5,8 3,9 - - 0,4
19.01.2019 01:00:00 6,0 3,3 - - 0,0
19.01.2019 00:00:00 5,9 3,0 - - 0,0
18.01.2019 23:00:00 6,1 3,2 - - 0,0
18.01.2019 22:00:00 6,1 3,1 - - 0,0
18.01.2019 21:00:00 6,3 3,7 - - 0,0
18.01.2019 20:00:00 6,1 3,5 - - 0,0
18.01.2019 19:00:00 5,7 2,7 - - 0,0
18.01.2019 18:00:00 5,5 2,0 - - 0,0
18.01.2019 17:00:00 5,5 2,1 - - 0,0
18.01.2019 16:00:00 5,4 2,5 - - 0,0
18.01.2019 15:00:00 6,1 2,1 - - 0,0
18.01.2019 14:00:00 6,8 2,5 - - 0,0
18.01.2019 13:00:00 6,0 1,9 - - 0,0
18.01.2019 12:00:00 6,8 2,5 - - 0,0
18.01.2019 11:00:00 5,1 1,7 - - 0,2
18.01.2019 10:00:00 4,4 1,7 - - 0,2
18.01.2019 09:00:00 4,0 1,4 6,5 8,2 0,6
18.01.2019 08:00:00 4,5 -0,9 - - 0,0
18.01.2019 07:00:00 4,2 -2,4 - - 0,0
18.01.2019 06:00:00 3,6 -2,0 - - 0,0
18.01.2019 05:00:00 3,6 -1,8 - - 0,0
18.01.2019 04:00:00 3,1 -2,0 - - 0,0
18.01.2019 03:00:00 2,8 -1,9 - - 0,0
18.01.2019 02:00:00 1,7 -1,2 - - 0,0
18.01.2019 01:00:00 1,3 -1,0 - - 0,0
18.01.2019 00:00:00 0,4 -0,6 - - 0,0
17.01.2019 23:00:00 0,5 -0,5 - - 0,0
17.01.2019 22:00:00 0,6 -0,2 - - 0,0
17.01.2019 21:00:00 0,7 -0,5 - - 0,0
17.01.2019 20:00:00 0,7 -0,3 - - 0,0
17.01.2019 19:00:00 1,4 0,3 - - 0,0
17.01.2019 18:00:00 1,6 0,5 - - 0,0
17.01.2019 17:00:00 2,5 1,0 - - 0,0
17.01.2019 16:00:00 4,3 1,4 - - 0,0
17.01.2019 15:00:00 4,7 1,9 - - 0,0
17.01.2019 14:00:00 5,6 0,8 - - 0,0
17.01.2019 13:00:00 6,0 -1,2 - - 0,0
17.01.2019 12:00:00 5,4 -1,6 - - 0,0
17.01.2019 11:00:00 2,7 -0,6 - - 0,0
17.01.2019 10:00:00 0,5 -1,2 - - 0,0
17.01.2019 09:00:00 1,5 -1,1 7,2 8,2 0,0
17.01.2019 08:00:00 1,7 0,2 - - 0,0
17.01.2019 07:00:00 3,0 -0,3 - - 0,0
17.01.2019 06:00:00 4,7 0,6 - - 0,0
17.01.2019 05:00:00 5,7 1,6 - - 0,0
17.01.2019 04:00:00 5,2 3,6 - - 1,2
17.01.2019 03:00:00 3,5 1,6 - - 0,2
17.01.2019 02:00:00 5,7 3,5 - - 0,0

tt = temperature
td = dewpoint
tt -20cm = temperature -20cm
tt -100cm = temperature -100cm
rr = precipitation

Next stations